createdAt,value
2018-06-01T00:00:34.160Z,0.00
2018-06-01T00:01:34.664Z,0.00
2018-06-01T00:02:34.710Z,0.00
2018-06-01T00:03:34.669Z,0.00
2018-06-01T00:04:55.662Z,0.00
2018-06-01T00:05:35.167Z,0.00
2018-06-01T00:06:35.173Z,0.00
2018-06-01T00:07:35.163Z,0.00
2018-06-01T00:08:35.163Z,0.00
2018-06-01T00:09:35.662Z,0.00
2018-06-01T00:10:35.673Z,0.00
2018-06-01T00:11:35.688Z,0.00
2018-06-01T00:12:56.652Z,0.00
2018-06-01T00:13:36.164Z,0.00
2018-06-01T00:14:36.163Z,0.00
2018-06-01T00:15:36.162Z,0.00
2018-06-01T00:16:37.160Z,0.00
2018-06-01T00:17:36.666Z,0.00
2018-06-01T00:18:36.662Z,0.00
2018-06-01T00:19:36.662Z,0.00
2018-06-01T00:20:36.662Z,0.00
2018-06-01T00:21:37.165Z,0.00
2018-06-01T00:22:37.175Z,0.00
2018-06-01T00:23:37.163Z,0.00
2018-06-01T00:24:37.164Z,0.00
2018-06-01T00:25:37.667Z,0.00
2018-06-01T00:26:37.669Z,0.00
2018-06-01T00:27:37.663Z,0.00
2018-06-01T00:28:37.663Z,0.00
2018-06-01T00:29:38.164Z,0.00
2018-06-01T00:30:38.597Z,0.00
2018-06-01T00:31:38.163Z,0.00
2018-06-01T00:32:38.163Z,0.00
2018-06-01T00:33:39.163Z,0.00
2018-06-01T00:34:38.663Z,0.00
2018-06-01T00:35:38.663Z,0.00
2018-06-01T00:36:38.664Z,0.00
2018-06-01T00:37:38.669Z,0.00
2018-06-01T00:38:39.163Z,0.00
2018-06-01T00:39:39.165Z,0.00
2018-06-01T00:40:39.164Z,0.00
2018-06-01T00:41:39.163Z,0.00
2018-06-01T00:42:39.665Z,0.00
2018-06-01T00:43:39.675Z,0.00
2018-06-01T00:44:39.665Z,0.00
2018-06-01T00:46:00.663Z,0.00
2018-06-01T00:46:40.170Z,0.00
2018-06-01T00:47:40.164Z,0.00
2018-06-01T00:48:40.164Z,0.00
2018-06-01T00:49:40.164Z,0.00
2018-06-01T00:50:40.664Z,0.00
2018-06-01T00:51:40.664Z,0.00
2018-06-01T00:52:40.660Z,0.00
2018-06-01T00:53:40.667Z,0.00
2018-06-01T00:54:41.162Z,0.00
2018-06-01T00:55:41.163Z,0.00
2018-06-01T00:56:41.164Z,0.00
2018-06-01T00:58:02.164Z,0.00
2018-06-01T00:58:41.664Z,0.00
2018-06-01T00:59:41.664Z,0.00
2018-06-01T01:01:02.668Z,0.00
2018-06-01T01:01:41.664Z,0.00
2018-06-01T01:02:42.162Z,0.00
2018-06-01T01:03:43.163Z,0.00
2018-06-01T01:04:42.164Z,0.00
2018-06-01T01:05:42.164Z,0.00
2018-06-01T01:06:42.673Z,0.00
2018-06-01T01:07:42.710Z,0.00
2018-06-01T01:08:42.664Z,0.00
2018-06-01T01:10:03.665Z,0.00
2018-06-01T01:10:43.166Z,0.00
2018-06-01T01:11:43.597Z,0.00
2018-06-01T01:12:43.160Z,0.00
2018-06-01T01:13:43.167Z,0.00
2018-06-01T01:14:43.665Z,0.00
2018-06-01T01:15:43.664Z,0.00
2018-06-01T01:16:43.665Z,0.00
2018-06-01T01:17:43.674Z,0.00
2018-06-01T01:19:05.164Z,0.00
2018-06-01T01:19:44.164Z,0.00
2018-06-01T01:20:44.164Z,0.00
2018-06-01T01:22:05.164Z,0.00
2018-06-01T01:22:44.666Z,0.00
2018-06-01T01:23:45.662Z,0.00
2018-06-01T01:24:44.663Z,0.00
2018-06-01T01:25:44.667Z,0.00
2018-06-01T01:26:45.169Z,0.00
2018-06-01T01:27:45.170Z,0.00
2018-06-01T01:28:45.163Z,0.00
2018-06-01T01:29:45.169Z,0.00
2018-06-01T01:30:45.664Z,0.00
2018-06-01T01:31:45.672Z,0.00
2018-06-01T01:32:45.664Z,0.00
2018-06-01T01:33:45.664Z,0.00
2018-06-01T01:34:46.164Z,0.00
2018-06-01T01:35:46.163Z,0.00
2018-06-01T01:36:46.164Z,0.00
2018-06-01T01:37:46.165Z,0.00
2018-06-01T01:38:46.664Z,0.00
2018-06-01T01:39:46.664Z,0.00
2018-06-01T01:40:46.664Z,0.00
2018-06-01T01:41:46.663Z,0.00
2018-06-01T01:42:47.171Z,0.00
2018-06-01T01:43:47.176Z,0.00
2018-06-01T01:44:47.164Z,0.00
2018-06-01T01:45:47.165Z,0.00
2018-06-01T01:46:47.670Z,0.00
2018-06-01T01:47:47.673Z,0.00
2018-06-01T01:48:47.664Z,0.00
2018-06-01T01:49:47.667Z,0.00
2018-06-01T01:50:49.167Z,0.00
2018-06-01T01:51:48.161Z,0.00
2018-06-01T01:52:48.168Z,0.00
2018-06-01T01:53:48.182Z,0.00
2018-06-01T01:54:49.662Z,0.00
2018-06-01T01:55:48.664Z,0.00
2018-06-01T01:56:48.664Z,0.00
2018-06-01T01:57:48.665Z,0.00
2018-06-01T01:58:49.164Z,0.00
2018-06-01T01:59:50.164Z,0.00
2018-06-01T02:00:49.164Z,0.00
2018-06-01T02:01:49.165Z,0.00
2018-06-01T02:02:49.661Z,0.00
2018-06-01T02:03:49.663Z,0.00
2018-06-01T02:04:49.673Z,0.00
2018-06-01T02:05:49.665Z,0.00
2018-06-01T02:06:50.165Z,0.00
2018-06-01T02:07:50.173Z,0.00
2018-06-01T02:08:50.165Z,0.00
2018-06-01T02:09:50.165Z,0.00
2018-06-01T02:10:50.667Z,0.00
2018-06-01T02:11:50.665Z,0.00
2018-06-01T02:12:50.666Z,0.00
2018-06-01T02:13:50.670Z,0.00
2018-06-01T02:14:51.165Z,0.00
2018-06-01T02:15:51.168Z,0.00
2018-06-01T02:16:51.165Z,0.00
2018-06-01T02:17:51.673Z,0.00
2018-06-01T02:18:51.664Z,0.00
2018-06-01T02:19:51.665Z,0.00
2018-06-01T02:20:51.667Z,0.00
2018-06-01T02:21:51.688Z,0.00
2018-06-01T02:22:52.166Z,0.00
2018-06-01T02:23:52.168Z,0.00
2018-06-01T02:24:52.169Z,0.00
2018-06-01T02:25:52.167Z,0.00
2018-06-01T02:26:52.665Z,0.00
2018-06-01T02:27:52.673Z,0.00
2018-06-01T02:28:52.679Z,0.00
2018-06-01T02:29:52.665Z,0.00
2018-06-01T02:30:53.165Z,0.00
2018-06-01T02:31:53.166Z,0.00
2018-06-01T02:32:53.166Z,0.00
2018-06-01T02:33:53.167Z,0.00
2018-06-01T02:34:53.670Z,0.00
2018-06-01T02:35:53.666Z,0.00
2018-06-01T02:36:53.699Z,0.00
2018-06-01T02:37:57.167Z,0.00
2018-06-01T02:39:15.174Z,0.00
2018-06-01T02:39:54.166Z,0.00
2018-06-01T02:40:54.166Z,0.00
2018-06-01T02:41:54.167Z,4.00
2018-06-01T02:42:54.666Z,4.00
2018-06-01T02:43:54.665Z,0.00
2018-06-01T02:44:55.638Z,0.00
2018-06-01T02:45:54.670Z,4.00
2018-06-01T02:46:55.169Z,4.00
2018-06-01T02:47:55.167Z,4.00
2018-06-01T02:48:55.173Z,0.00
2018-06-01T02:49:55.167Z,4.00
2018-06-01T02:50:55.666Z,4.00
2018-06-01T02:51:55.666Z,4.00
2018-06-01T02:52:55.667Z,4.00
2018-06-01T02:53:56.662Z,8.00
2018-06-01T02:54:56.164Z,8.00
2018-06-01T02:55:56.166Z,8.00
2018-06-01T02:56:56.167Z,12.00
2018-06-01T02:57:56.162Z,12.00
2018-06-01T02:58:56.667Z,12.00
2018-06-01T02:59:56.393Z,12.00
2018-06-01T03:00:57.659Z,12.00
2018-06-01T03:01:56.666Z,16.00
2018-06-01T03:02:57.163Z,12.00
2018-06-01T03:03:57.163Z,16.00
2018-06-01T03:04:57.043Z,12.00
2018-06-01T03:05:57.181Z,12.00
2018-06-01T03:06:57.268Z,16.00
2018-06-01T03:07:57.368Z,16.00
2018-06-01T03:08:57.672Z,16.00
2018-06-01T03:09:57.666Z,20.00
2018-06-01T03:11:19.665Z,20.00
2018-06-01T03:11:58.167Z,24.00
2018-06-01T03:12:58.173Z,20.00
2018-06-01T03:13:58.166Z,20.00
2018-06-01T03:14:58.170Z,20.00
2018-06-01T03:15:58.669Z,20.00
2018-06-01T03:16:58.666Z,24.00
2018-06-01T03:17:59.665Z,20.00
2018-06-01T03:18:58.667Z,24.00
2018-06-01T03:19:59.167Z,24.00
2018-06-01T03:20:59.167Z,24.00
2018-06-01T03:21:59.170Z,24.00
2018-06-01T03:23:07.165Z,20.00
2018-06-01T03:23:59.664Z,20.00
2018-06-01T03:24:59.665Z,20.00
2018-06-01T03:25:59.675Z,20.00
2018-06-01T03:26:59.669Z,16.00
2018-06-01T03:28:00.166Z,16.00
2018-06-01T03:29:00.172Z,16.00
2018-06-01T03:30:00.181Z,20.00
2018-06-01T03:31:00.167Z,16.00
2018-06-01T03:32:00.667Z,20.00
2018-06-01T03:33:00.667Z,20.00
2018-06-01T03:34:00.670Z,20.00
2018-06-01T03:35:00.669Z,20.00
2018-06-01T03:36:01.170Z,20.00
2018-06-01T03:37:01.167Z,24.00
2018-06-01T03:38:01.167Z,28.00
2018-06-01T03:39:01.168Z,28.00
2018-06-01T03:40:01.667Z,28.00
2018-06-01T03:41:01.668Z,36.00
2018-06-01T03:42:01.667Z,36.00
2018-06-01T03:43:01.667Z,36.00
2018-06-01T03:44:02.165Z,44.00
2018-06-01T03:45:02.174Z,44.00
2018-06-01T03:46:02.171Z,48.00
2018-06-01T03:47:02.167Z,52.00
2018-06-01T03:48:02.672Z,60.00
2018-06-01T03:49:02.726Z,60.00
2018-06-01T03:50:02.674Z,68.00
2018-06-01T03:51:02.668Z,76.00
2018-06-01T03:52:03.167Z,84.00
2018-06-01T03:53:03.165Z,92.00
2018-06-01T03:54:03.167Z,100.00
2018-06-01T03:55:03.168Z,112.00
2018-06-01T03:56:03.666Z,124.00
2018-06-01T03:57:03.667Z,136.00
2018-06-01T03:58:03.668Z,152.00
2018-06-01T03:59:03.713Z,168.00
2018-06-01T04:00:25.179Z,188.00
2018-06-01T04:01:05.165Z,208.00
2018-06-01T04:02:04.017Z,232.00
2018-06-01T04:03:04.170Z,256.00
2018-06-01T04:04:04.668Z,284.00
2018-06-01T04:05:04.665Z,312.00
2018-06-01T04:06:04.670Z,344.00
2018-06-01T04:07:04.635Z,372.00
2018-06-01T04:08:05.165Z,400.00
2018-06-01T04:09:05.168Z,432.00
2018-06-01T04:10:05.174Z,456.00
2018-06-01T04:11:05.157Z,488.00
2018-06-01T04:12:05.668Z,524.00
2018-06-01T04:13:05.668Z,548.00
2018-06-01T04:14:05.669Z,576.00
2018-06-01T04:15:05.708Z,604.00
2018-06-01T04:16:06.174Z,636.00
2018-06-01T04:17:06.168Z,668.00
2018-06-01T04:18:06.047Z,700.00
2018-06-01T04:19:06.168Z,724.00
2018-06-01T04:20:06.678Z,756.00
2018-06-01T04:21:06.668Z,784.00
2018-06-01T04:22:06.673Z,816.00
2018-06-01T04:23:06.669Z,852.00
2018-06-01T04:24:07.169Z,880.00
2018-06-01T04:25:07.165Z,896.00
2018-06-01T04:26:28.169Z,888.00
2018-06-01T04:27:07.176Z,888.00
2018-06-01T04:28:07.269Z,904.00
2018-06-01T04:29:07.668Z,912.00
2018-06-01T04:30:07.673Z,916.00
2018-06-01T04:31:07.668Z,916.00
2018-06-01T04:32:08.168Z,904.00
2018-06-01T04:33:08.169Z,916.00
2018-06-01T04:34:09.170Z,912.00
2018-06-01T04:35:08.169Z,904.00
2018-06-01T04:36:08.673Z,924.00
2018-06-01T04:37:08.669Z,936.00
2018-06-01T04:38:08.529Z,944.00
2018-06-01T04:39:08.669Z,972.00
2018-06-01T04:40:09.177Z,984.00
2018-06-01T04:41:09.169Z,984.00
2018-06-01T04:42:09.174Z,992.00
2018-06-01T04:43:31.167Z,988.00
2018-06-01T04:44:09.669Z,984.00
2018-06-01T04:45:09.669Z,1000.00
2018-06-01T04:46:09.672Z,1012.00
2018-06-01T04:47:09.684Z,1020.00
2018-06-01T04:48:10.170Z,1040.00
2018-06-01T04:49:10.173Z,1068.00
2018-06-01T04:50:10.171Z,1096.00
2018-06-01T04:51:12.101Z,1144.00
2018-06-01T04:52:31.671Z,1172.00
2018-06-01T04:53:12.132Z,1188.00
2018-06-01T04:54:10.669Z,1196.00
2018-06-01T04:55:10.670Z,1248.00
2018-06-01T04:56:11.194Z,1292.00
2018-06-01T04:57:11.169Z,1304.00
2018-06-01T04:58:11.169Z,1304.00
2018-06-01T04:59:11.168Z,1320.00
2018-06-01T05:00:11.702Z,1312.00
2018-06-01T05:01:11.672Z,1240.00
2018-06-01T05:02:11.667Z,1260.00
2018-06-01T05:03:11.651Z,1212.00
2018-06-01T05:04:12.173Z,1132.00
2018-06-01T05:05:12.170Z,1048.00
2018-06-01T05:06:12.168Z,1056.00
2018-06-01T05:07:12.173Z,1044.00
2018-06-01T05:08:12.670Z,1044.00
2018-06-01T05:09:12.674Z,1096.00
2018-06-01T05:10:12.522Z,1132.00
2018-06-01T05:11:12.677Z,1188.00
2018-06-01T05:12:13.641Z,1256.00
2018-06-01T05:13:13.170Z,1308.00
2018-06-01T05:14:13.023Z,1372.00
2018-06-01T05:15:13.185Z,1436.00
2018-06-01T05:16:13.673Z,1468.00
2018-06-01T05:17:13.678Z,1480.00
2018-06-01T05:18:13.670Z,1488.00
2018-06-01T05:19:13.670Z,1508.00
2018-06-01T05:20:14.178Z,1536.00
2018-06-01T05:21:14.183Z,1532.00
2018-06-01T05:22:14.200Z,1512.00
2018-06-01T05:23:35.170Z,1508.00
2018-06-01T05:24:14.670Z,1520.00
2018-06-01T05:25:14.670Z,1540.00
2018-06-01T05:26:14.672Z,1544.00
2018-06-01T05:27:14.669Z,1548.00
2018-06-01T05:28:15.170Z,1568.00
2018-06-01T05:29:15.170Z,1588.00
2018-06-01T05:30:15.170Z,1596.00
2018-06-01T05:31:15.176Z,1592.00
2018-06-01T05:32:15.672Z,1572.00
2018-06-01T05:33:16.669Z,1712.00
2018-06-01T05:34:15.670Z,1536.00
2018-06-01T05:35:15.664Z,1520.00
2018-06-01T05:36:16.173Z,1468.00
2018-06-01T05:37:16.179Z,1480.00
2018-06-01T05:38:16.170Z,1576.00
2018-06-01T05:39:16.171Z,1448.00
2018-06-01T05:40:16.676Z,1408.00
2018-06-01T05:41:16.679Z,1368.00
2018-06-01T05:42:16.531Z,1336.00
2018-06-01T05:43:17.674Z,1312.00
2018-06-01T05:44:17.171Z,1300.00
2018-06-01T05:45:17.172Z,1280.00
2018-06-01T05:46:17.170Z,1232.00
2018-06-01T05:47:17.187Z,1208.00
2018-06-01T05:48:17.815Z,1204.00
2018-06-01T05:49:17.671Z,1224.00
2018-06-01T05:50:17.806Z,1276.00
2018-06-01T05:51:18.745Z,1300.00
2018-06-01T05:52:18.171Z,1308.00
2018-06-01T05:53:18.181Z,1308.00
2018-06-01T05:54:18.171Z,1400.00
2018-06-01T05:55:18.170Z,1424.00
2018-06-01T05:56:18.672Z,1552.00
2018-06-01T05:57:18.680Z,1656.00
2018-06-01T05:58:18.672Z,1832.00
2018-06-01T05:59:18.672Z,1784.00
2018-06-01T06:00:19.171Z,1788.00
2018-06-01T06:01:19.182Z,1764.00
2018-06-01T06:02:19.174Z,2028.00
2018-06-01T06:03:40.171Z,2116.00
2018-06-01T06:04:19.672Z,1896.00
2018-06-01T06:05:19.671Z,1976.00
2018-06-01T06:06:19.668Z,2060.00
2018-06-01T06:07:19.675Z,2224.00
2018-06-01T06:08:20.173Z,2404.00
2018-06-01T06:09:22.604Z,2604.00
2018-06-01T06:10:20.172Z,2776.00
2018-06-01T06:11:21.170Z,2928.00
2018-06-01T06:12:20.674Z,3300.00
2018-06-01T06:13:20.739Z,3328.00
2018-06-01T06:14:20.672Z,3344.00
2018-06-01T06:15:20.647Z,3320.00
2018-06-01T06:16:20.753Z,3352.00
2018-06-01T06:17:21.172Z,3052.00
2018-06-01T06:18:21.179Z,2812.00
2018-06-01T06:19:42.176Z,2672.00
2018-06-01T06:20:21.673Z,2512.00
2018-06-01T06:21:21.679Z,2448.00
2018-06-01T06:22:21.671Z,2512.00
2018-06-01T06:23:21.708Z,2476.00
2018-06-01T06:24:22.172Z,2672.00
2018-06-01T06:25:22.172Z,2424.00
2018-06-01T06:26:22.171Z,2592.00
2018-06-01T06:27:22.173Z,2764.00
2018-06-01T06:28:24.145Z,2932.00
2018-06-01T06:29:22.672Z,3044.00
2018-06-01T06:30:22.673Z,2824.00
2018-06-01T06:31:22.725Z,2904.00
2018-06-01T06:32:23.271Z,2992.00
2018-06-01T06:33:23.555Z,3104.00
2018-06-01T06:34:24.170Z,3128.00
2018-06-01T06:35:23.172Z,3120.00
2018-06-01T06:36:24.017Z,3376.00
2018-06-01T06:37:23.670Z,3088.00
2018-06-01T06:38:23.697Z,3200.00
2018-06-01T06:39:23.672Z,3580.00
2018-06-01T06:40:24.179Z,3972.00
2018-06-01T06:41:24.184Z,3916.00
2018-06-01T06:42:24.179Z,4060.00
2018-06-01T06:43:24.172Z,4544.00
2018-06-01T06:44:24.675Z,4472.00
2018-06-01T06:45:24.673Z,4284.00
2018-06-01T06:46:24.675Z,4236.00
2018-06-01T06:47:45.674Z,4528.00
2018-06-01T06:48:26.605Z,4476.00
2018-06-01T06:49:26.605Z,4340.00
2018-06-01T06:50:25.173Z,3972.00
2018-06-01T06:51:25.176Z,3944.00
2018-06-01T06:52:26.105Z,3600.00
2018-06-01T06:53:25.673Z,3656.00
2018-06-01T06:54:25.672Z,3172.00
2018-06-01T06:55:25.673Z,2912.00
2018-06-01T06:56:26.173Z,2788.00
2018-06-01T06:57:26.175Z,2700.00
2018-06-01T06:58:26.180Z,2572.00
2018-06-01T06:59:28.145Z,2468.00
2018-06-01T07:00:50.671Z,2864.00
2018-06-01T07:01:26.675Z,3152.00
2018-06-01T07:02:26.679Z,3192.00
2018-06-01T07:03:26.659Z,3372.00
2018-06-01T07:04:27.173Z,3728.00
2018-06-01T07:05:27.178Z,3364.00
2018-06-01T07:06:27.027Z,3536.00
2018-06-01T07:07:27.173Z,4608.00
2018-06-01T07:08:27.679Z,5244.00
2018-06-01T07:09:27.673Z,5020.00
2018-06-01T07:10:27.530Z,4708.00
2018-06-01T07:11:27.664Z,4276.00
2018-06-01T07:12:28.173Z,3716.00
2018-06-01T07:13:28.174Z,3044.00
2018-06-01T07:14:28.175Z,2872.00
2018-06-01T07:15:28.174Z,2848.00
2018-06-01T07:16:28.713Z,2708.00
2018-06-01T07:17:28.674Z,2492.00
2018-06-01T07:18:28.674Z,2544.00
2018-06-01T07:19:28.686Z,2688.00
2018-06-01T07:20:29.178Z,2912.00
2018-06-01T07:21:29.172Z,2724.00
2018-06-01T07:22:29.233Z,2624.00
2018-06-01T07:23:29.173Z,2448.00
2018-06-01T07:24:29.674Z,2396.00
2018-06-01T07:25:29.674Z,2568.00
2018-06-01T07:26:29.673Z,2924.00
2018-06-01T07:27:29.675Z,3544.00
2018-06-01T07:28:30.178Z,3784.00
2018-06-01T07:29:30.173Z,3748.00
2018-06-01T07:30:30.176Z,3584.00
2018-06-01T07:31:30.173Z,3376.00
2018-06-01T07:32:30.686Z,3372.00
2018-06-01T07:33:30.676Z,3364.00
2018-06-01T07:34:30.675Z,3308.00
2018-06-01T07:35:30.675Z,3404.00
2018-06-01T07:36:31.173Z,3508.00
2018-06-01T07:37:31.174Z,3560.00
2018-06-01T07:38:31.173Z,3564.00
2018-06-01T07:39:31.178Z,3432.00
2018-06-01T07:40:31.682Z,3416.00
2018-06-01T07:41:32.674Z,3340.00
2018-06-01T07:42:31.680Z,3596.00
2018-06-01T07:43:31.663Z,3720.00
2018-06-01T07:44:32.180Z,3832.00
2018-06-01T07:45:32.174Z,3888.00
2018-06-01T07:46:32.174Z,3880.00
2018-06-01T07:47:32.175Z,3820.00
2018-06-01T07:48:32.684Z,3760.00
2018-06-01T07:49:32.675Z,3368.00
2018-06-01T07:50:32.691Z,3420.00
2018-06-01T07:51:33.677Z,3288.00
2018-06-01T07:52:33.182Z,3252.00
2018-06-01T07:53:33.175Z,2832.00
2018-06-01T07:54:33.203Z,2352.00
2018-06-01T07:55:33.175Z,2164.00
2018-06-01T07:56:33.677Z,2164.00
2018-06-01T07:57:33.676Z,2616.00
2018-06-01T07:58:33.740Z,2784.00
2018-06-01T07:59:33.653Z,3120.00
2018-06-01T08:00:34.174Z,3332.00
2018-06-01T08:01:34.175Z,3164.00
2018-06-01T08:02:34.175Z,3320.00
2018-06-01T08:03:34.230Z,3444.00
2018-06-01T08:04:34.676Z,3424.00
2018-06-01T08:05:34.676Z,3440.00
2018-06-01T08:06:34.692Z,3248.00
2018-06-01T08:07:34.680Z,3340.00
2018-06-01T08:08:35.182Z,3448.00
2018-06-01T08:09:35.173Z,3464.00
2018-06-01T08:10:35.176Z,3316.00
2018-06-01T08:11:35.180Z,3512.00
2018-06-01T08:12:35.699Z,3672.00
2018-06-01T08:13:35.676Z,3956.00
2018-06-01T08:14:35.714Z,3840.00
2018-06-01T08:15:36.176Z,3536.00
2018-06-01T08:16:36.176Z,4036.00
2018-06-01T08:17:36.172Z,4404.00
2018-06-01T08:18:36.174Z,5176.00
2018-06-01T08:19:36.184Z,5396.00
2018-06-01T08:20:36.681Z,5564.00
2018-06-01T08:21:36.414Z,5572.00
2018-06-01T08:22:36.676Z,5400.00
2018-06-01T08:23:36.687Z,5404.00
2018-06-01T08:24:37.180Z,5580.00
2018-06-01T08:25:37.177Z,5608.00
2018-06-01T08:26:37.176Z,5576.00
2018-06-01T08:27:37.184Z,5528.00
2018-06-01T08:28:38.169Z,5556.00
2018-06-01T08:29:37.691Z,5596.00
2018-06-01T08:30:37.677Z,5604.00
2018-06-01T08:31:38.698Z,5768.00
2018-06-01T08:32:38.200Z,5384.00
2018-06-01T08:33:38.185Z,4788.00
2018-06-01T08:34:38.176Z,4288.00
2018-06-01T08:35:38.177Z,4284.00
2018-06-01T08:36:38.677Z,3980.00
2018-06-01T08:37:38.680Z,3780.00
2018-06-01T08:38:38.677Z,3328.00
2018-06-01T08:39:38.681Z,3136.00
2018-06-01T08:40:39.177Z,3316.00
2018-06-01T08:41:39.177Z,4192.00
2018-06-01T08:42:39.177Z,4600.00
2018-06-01T08:43:39.183Z,4172.00
2018-06-01T08:44:39.348Z,4340.00
2018-06-01T08:45:39.452Z,4676.00
2018-06-01T08:46:39.700Z,4988.00
2018-06-01T08:47:39.677Z,5304.00
2018-06-01T08:48:40.177Z,5156.00
2018-06-01T08:49:40.180Z,4920.00
2018-06-01T08:50:40.177Z,4860.00
2018-06-01T08:51:40.177Z,4976.00
2018-06-01T08:52:40.282Z,4480.00
2018-06-01T08:53:40.694Z,3876.00
2018-06-01T08:54:40.678Z,3556.00
2018-06-01T08:58:44.486Z,4508.00
2018-06-01T08:59:44.488Z,3980.00
2018-06-01T09:00:44.497Z,3504.00
2018-06-01T09:01:44.990Z,4136.00
2018-06-01T09:02:44.993Z,4992.00
2018-06-01T09:03:44.989Z,5356.00
2018-06-01T09:07:48.221Z,5100.00
2018-06-01T09:08:47.701Z,5344.00
2018-06-01T09:09:47.802Z,5988.00
2018-06-01T09:11:09.728Z,6876.00
2018-06-01T09:11:47.958Z,6188.00
2018-06-01T09:12:50.204Z,5884.00
2018-06-01T09:13:48.731Z,6328.00
2018-06-01T09:14:51.228Z,7168.00
2018-06-01T09:16:10.231Z,8140.00
2018-06-01T09:16:49.276Z,7408.00
2018-06-01T09:17:48.707Z,7224.00
2018-06-01T09:19:03.737Z,7112.00
2018-06-01T09:19:49.727Z,5584.00
2018-06-01T09:20:49.765Z,5860.00
2018-06-01T09:21:49.731Z,6920.00
2018-06-01T09:22:56.229Z,8168.00
2018-06-01T09:23:49.461Z,8036.00
2018-06-01T09:24:50.229Z,6752.00
2018-06-01T09:25:50.232Z,5840.00
2018-06-01T09:26:56.726Z,5952.00
2018-06-01T09:29:22.103Z,5900.00
2018-06-01T09:30:43.171Z,5428.00
2018-06-01T09:31:21.527Z,5208.00
2018-06-01T09:33:53.809Z,4280.00
2018-06-01T09:34:53.819Z,4060.00
2018-06-01T09:36:14.812Z,3804.00
2018-06-01T09:36:54.305Z,3868.00
2018-06-01T09:37:54.311Z,3600.00
2018-06-01T09:38:54.238Z,4696.00
2018-06-01T09:39:54.305Z,5824.00
2018-06-01T09:40:54.805Z,6316.00
2018-06-01T09:41:56.784Z,6476.00
2018-06-01T09:43:00.807Z,5936.00
2018-06-01T09:43:54.802Z,6400.00
2018-06-01T09:48:21.437Z,7168.00
2018-06-01T09:49:20.003Z,6648.00
2018-06-01T09:49:59.943Z,6060.00
2018-06-01T09:50:59.501Z,6160.00
2018-06-01T09:51:58.514Z,6036.00
2018-06-01T09:52:57.737Z,6088.00
2018-06-01T09:53:58.503Z,6816.00
2018-06-01T09:55:05.022Z,6648.00
2018-06-01T09:55:59.003Z,7396.00
2018-06-01T09:57:21.443Z,7304.00
2018-06-01T09:57:59.009Z,8660.00
2018-06-01T09:58:59.007Z,9580.00
2018-06-01T09:59:58.481Z,10236.00
2018-06-01T10:01:05.523Z,10332.00
2018-06-01T10:01:59.508Z,9948.00
2018-06-01T10:03:01.503Z,10192.00
2018-06-01T10:04:00.511Z,9968.00
2018-06-01T10:05:23.006Z,9764.00
2018-06-01T10:06:00.003Z,9492.00
2018-06-01T10:07:01.472Z,9008.00
2018-06-01T10:08:00.005Z,8144.00
2018-06-01T10:09:00.512Z,6348.00
2018-06-01T10:10:00.506Z,5972.00
2018-06-01T10:11:00.510Z,5568.00
2018-06-01T10:12:00.504Z,5848.00
2018-06-01T10:13:01.011Z,6508.00
2018-06-01T10:14:01.004Z,7692.00
2018-06-01T10:15:01.005Z,6644.00
2018-06-01T10:16:01.004Z,6916.00
2018-06-01T10:17:01.504Z,8208.00
2018-06-01T10:18:00.798Z,8768.00
2018-06-01T10:19:01.505Z,8012.00
2018-06-01T10:20:01.508Z,7168.00
2018-06-01T10:21:02.005Z,9064.00
2018-06-01T10:22:02.005Z,10228.00
2018-06-01T10:23:02.009Z,8788.00
2018-06-01T10:24:03.005Z,8560.00
2018-06-01T10:25:04.512Z,8360.00
2018-06-01T10:27:35.332Z,4232.00
2018-06-01T10:28:33.246Z,4788.00
2018-06-01T10:29:35.340Z,5480.00
2018-06-01T10:30:33.478Z,4652.00
2018-06-01T10:31:34.403Z,4476.00
2018-06-01T10:32:48.400Z,6316.00
2018-06-01T10:33:33.803Z,8124.00
2018-06-01T10:34:34.401Z,8064.00
2018-06-01T10:35:34.903Z,7688.00
2018-06-01T10:36:34.909Z,7728.00
2018-06-01T10:37:34.901Z,5740.00
2018-06-01T10:38:34.908Z,5984.00
2018-06-01T10:39:56.415Z,5888.00
2018-06-01T10:40:35.371Z,6020.00
2018-06-01T10:41:41.401Z,6784.00
2018-06-01T10:42:35.407Z,8484.00
2018-06-01T10:43:56.969Z,10436.00
2018-06-01T10:46:06.520Z,10488.00
2018-06-01T10:47:07.229Z,10648.00
2018-06-01T10:48:06.702Z,9764.00
2018-06-01T10:49:28.726Z,9668.00
2018-06-01T10:50:07.769Z,9236.00
2018-06-01T10:51:21.723Z,9564.00
2018-06-01T10:52:07.725Z,9944.00
2018-06-01T10:53:29.270Z,8692.00
2018-06-01T10:55:39.620Z,6412.00
2018-06-01T10:56:39.625Z,6160.00
2018-06-01T10:57:54.124Z,7288.00
2018-06-01T10:58:40.125Z,9240.00
2018-06-01T10:59:40.128Z,6804.00
2018-06-01T11:01:40.181Z,7936.00
2018-06-01T11:02:40.625Z,7432.00
2018-06-01T11:03:40.627Z,5956.00
2018-06-01T11:04:40.631Z,6244.00
2018-06-01T11:05:41.623Z,6836.00
2018-06-01T11:06:41.125Z,6756.00
2018-06-01T11:08:02.126Z,7404.00
2018-06-01T11:08:41.125Z,8064.00
2018-06-01T11:09:41.125Z,7952.00
2018-06-01T11:12:33.894Z,8728.00
2018-06-01T11:13:13.909Z,9516.00
2018-06-01T11:14:17.836Z,10500.00
2018-06-01T11:15:27.399Z,10784.00
2018-06-01T11:16:34.407Z,10088.00
2018-06-01T11:17:13.436Z,10208.00
2018-06-01T11:18:13.405Z,10392.00
2018-06-01T11:19:27.906Z,11468.00
2018-06-01T11:20:15.336Z,10792.00
2018-06-01T11:21:27.923Z,7344.00
2018-06-01T11:22:13.903Z,6040.00
2018-06-01T11:23:35.558Z,6608.00
2018-06-01T11:24:35.401Z,8796.00
2018-06-01T11:25:35.399Z,7112.00
2018-06-01T11:26:21.884Z,8772.00
2018-06-01T11:28:47.124Z,10240.00
2018-06-01T11:29:46.161Z,10996.00
2018-06-01T11:30:46.159Z,10376.00
2018-06-01T11:31:46.685Z,9984.00
2018-06-01T11:32:47.597Z,6792.00
2018-06-01T11:34:07.661Z,7192.00
2018-06-01T11:34:46.659Z,8652.00
2018-06-01T11:37:18.429Z,9392.00
2018-06-01T11:38:18.474Z,12424.00
2018-06-01T11:39:24.945Z,11728.00
2018-06-01T11:40:18.971Z,10300.00
2018-06-01T11:41:20.940Z,9520.00
2018-06-01T11:42:18.936Z,10340.00
2018-06-01T11:43:41.434Z,9232.00
2018-06-01T11:44:19.436Z,9232.00
2018-06-01T11:45:41.400Z,9948.00
2018-06-01T11:46:29.368Z,10280.00
2018-06-01T11:49:11.449Z,9264.00
2018-06-01T11:49:56.116Z,10372.00
2018-06-01T11:50:53.156Z,12280.00
2018-06-01T11:53:22.929Z,12748.00
2018-06-01T11:54:43.936Z,12172.00
2018-06-01T11:55:22.941Z,12224.00
2018-06-01T11:56:29.434Z,12900.00
2018-06-01T11:57:23.494Z,11184.00
2018-06-01T11:58:23.436Z,9260.00
2018-06-01T11:59:23.436Z,9616.00
2018-06-01T12:00:50.937Z,9656.00
2018-06-01T12:01:25.372Z,10104.00
2018-06-01T12:02:23.937Z,9968.00
2018-06-01T12:03:23.934Z,9112.00
2018-06-01T12:04:24.459Z,9428.00
2018-06-01T12:05:24.443Z,8428.00
2018-06-01T12:06:45.447Z,6236.00
2018-06-01T12:07:24.434Z,7340.00
2018-06-01T12:08:26.900Z,7572.00
2018-06-01T12:09:51.936Z,7852.00
2018-06-01T12:10:26.938Z,8080.00
2018-06-01T12:11:39.438Z,8624.00
2018-06-01T12:12:31.439Z,9452.00
2018-06-01T12:13:25.438Z,9868.00
2018-06-01T12:14:26.435Z,10580.00
2018-06-01T12:15:25.439Z,11000.00
2018-06-01T12:16:27.938Z,10684.00
2018-06-01T12:19:01.770Z,5648.00
2018-06-01T12:19:56.679Z,5872.00
2018-06-01T12:21:18.338Z,7080.00
2018-06-01T12:21:57.845Z,8752.00
2018-06-01T12:22:57.848Z,11076.00
2018-06-01T12:24:18.188Z,13140.00
2018-06-01T12:24:58.836Z,14004.00
2018-06-01T12:26:19.338Z,12888.00
2018-06-01T12:27:57.693Z,8256.00
2018-06-01T12:28:58.335Z,7132.00
2018-06-01T12:30:16.782Z,6532.00
2018-06-01T12:32:37.682Z,5684.00
2018-06-01T12:33:30.242Z,4696.00
2018-06-01T12:34:30.242Z,4004.00
2018-06-01T12:37:01.279Z,2412.00
2018-06-01T12:38:02.011Z,2472.00
2018-06-01T12:39:02.012Z,3164.00
2018-06-01T12:40:16.512Z,4616.00
2018-06-01T12:41:02.520Z,6068.00
2018-06-01T12:43:36.032Z,6372.00
2018-06-01T12:44:55.039Z,6920.00
2018-06-01T12:45:34.051Z,7388.00
2018-06-01T12:48:19.810Z,7056.00
2018-06-01T12:49:05.816Z,6952.00
2018-06-01T12:50:06.749Z,7072.00
2018-06-01T12:51:06.315Z,6980.00
2018-06-01T12:52:05.546Z,7704.00
2018-06-01T12:53:06.316Z,7472.00
2018-06-01T12:54:27.318Z,7760.00
2018-06-01T12:55:06.817Z,7808.00
2018-06-01T12:56:27.817Z,5504.00
2018-06-01T12:57:06.820Z,4744.00
2018-06-01T12:58:06.294Z,4136.00
2018-06-01T12:59:28.314Z,2936.00
2018-06-01T13:01:52.739Z,2228.00
2018-06-01T13:02:38.770Z,2120.00